Time,TemperatureF,DewpointF,PressureIn,WindDirection,WindDirectionDegrees,WindSpeedMPH,WindSpeedGustMPH,Humidity,HourlyPrecipIn,Conditions,Clouds,dailyrainin,SoftwareType,DateUTC
2013-04-21 00:05:00,35.6,22.0,30.30,NNW,336,2.0,7.0,57,0.00,,,0.00,weatherlink.com 1.10,2013-04-21 04:05:00,
2013-04-21 00:20:00,35.3,22.0,30.31,NNW,329,0.0,4.0,58,0.00,,,0.00,weatherlink.com 1.10,2013-04-21 04:20:00,
2013-04-21 00:35:00,35.3,20.0,30.31,NW,320,2.0,6.0,55,0.00,,,0.00,weatherlink.com 1.10,2013-04-21 04:35:00,
2013-04-21 00:50:00,35.5,20.0,30.32,NW,307,1.0,7.0,54,0.00,,,0.00,weatherlink.com 1.10,2013-04-21 04:50:00,
2013-04-21 01:05:00,34.9,18.0,30.33,WNW,296,2.0,10.0,51,0.00,,,0.00,weatherlink.com 1.10,2013-04-21 05:05:00,
2013-04-21 01:20:00,34.4,18.0,30.34,NNW,328,3.0,11.0,52,0.00,,,0.00,weatherlink.com 1.10,2013-04-21 05:20:00,
2013-04-21 01:35:00,34.0,17.0,30.34,NW,316,4.0,6.0,51,0.00,,,0.00,weatherlink.com 1.10,2013-04-21 05:35:00,
2013-04-21 01:50:00,34.0,18.0,30.35,WNW,288,3.0,4.0,52,0.00,,,0.00,weatherlink.com 1.10,2013-04-21 05:50:00,
2013-04-21 02:06:00,34.1,18.0,30.35,WNW,296,2.0,7.0,52,0.00,,,0.00,weatherlink.com 1.10,2013-04-21 06:06:00,
2013-04-21 02:21:00,34.1,18.0,30.36,NW,306,2.0,5.0,51,0.00,,,0.00,weatherlink.com 1.10,2013-04-21 06:21:00,
2013-04-21 02:36:00,34.0,18.0,30.36,WNW,289,0.0,3.0,53,0.00,,,0.00,weatherlink.com 1.10,2013-04-21 06:36:00,
2013-04-21 02:51:00,33.7,18.0,30.37,West,271,1.0,3.0,53,0.00,,,0.00,weatherlink.com 1.10,2013-04-21 06:51:00,
2013-04-21 03:06:00,33.9,18.0,30.37,NW,308,1.0,3.0,53,0.00,,,0.00,weatherlink.com 1.10,2013-04-21 07:06:00,
2013-04-21 03:21:00,33.7,18.0,30.38,NW,314,1.0,3.0,53,0.00,,,0.00,weatherlink.com 1.10,2013-04-21 07:21:00,
2013-04-21 03:36:00,33.5,19.0,30.39,WNW,290,0.0,2.0,55,0.00,,,0.00,weatherlink.com 1.10,2013-04-21 07:36:00,
2013-04-21 03:51:00,32.7,18.0,30.39,West,281,0.0,1.0,56,0.00,,,0.00,weatherlink.com 1.10,2013-04-21 07:51:00,
2013-04-21 04:06:00,31.6,19.0,30.41,NW,319,0.0,0.0,61,0.00,,,0.00,weatherlink.com 1.10,2013-04-21 08:06:00,
2013-04-21 04:21:00,30.8,18.0,30.42,NNE,19,0.0,1.0,60,0.00,,,0.00,weatherlink.com 1.10,2013-04-21 08:21:00,
2013-04-21 04:36:00,30.3,19.0,30.42,NE,43,0.0,1.0,63,0.00,,,0.00,weatherlink.com 1.10,2013-04-21 08:36:00,
2013-04-21 04:51:00,30.1,20.0,30.43,NE,54,1.0,2.0,66,0.00,,,0.00,weatherlink.com 1.10,2013-04-21 08:51:00,
2013-04-21 05:06:00,30.4,20.0,30.44,NE,43,0.0,3.0,65,0.00,,,0.00,weatherlink.com 1.10,2013-04-21 09:06:00,
2013-04-21 05:22:00,30.8,17.0,30.45,NNE,14,4.0,8.0,58,0.00,,,0.00,weatherlink.com 1.10,2013-04-21 09:22:00,
2013-04-21 05:36:00,31.0,16.0,30.46,NE,36,0.0,4.0,55,0.00,,,0.00,weatherlink.com 1.10,2013-04-21 09:36:00,
2013-04-21 05:51:00,30.5,16.0,30.48,East,79,0.0,3.0,56,0.00,,,0.00,weatherlink.com 1.10,2013-04-21 09:51:00,
2013-04-21 06:06:00,30.2,16.0,30.49,WNW,290,0.0,2.0,55,0.00,,,0.00,weatherlink.com 1.10,2013-04-21 10:06:00,
2013-04-21 06:21:00,30.3,14.0,30.50,ENE,59,0.0,2.0,52,0.00,,,0.00,weatherlink.com 1.10,2013-04-21 10:21:00,
2013-04-21 06:36:00,30.8,15.0,30.51,NNE,24,0.0,6.0,53,0.00,,,0.00,weatherlink.com 1.10,2013-04-21 10:36:00,
2013-04-21 06:51:00,32.3,15.0,30.52,West,271,0.0,3.0,49,0.00,,,0.00,weatherlink.com 1.10,2013-04-21 10:51:00,
2013-04-21 07:06:00,33.3,16.0,30.53,NNE,32,0.0,3.0,50,0.00,,,0.00,weatherlink.com 1.10,2013-04-21 11:06:00,
2013-04-21 07:22:00,33.9,15.0,30.54,NNE,33,3.0,6.0,47,0.00,,,0.00,weatherlink.com 1.10,2013-04-21 11:22:00,
2013-04-21 07:37:00,33.9,14.0,30.55,ENE,77,4.0,7.0,45,0.00,,,0.00,weatherlink.com 1.10,2013-04-21 11:37:00,
2013-04-21 07:52:00,34.4,15.0,30.56,East,89,6.0,8.0,45,0.00,,,0.00,weatherlink.com 1.10,2013-04-21 11:52:00,
2013-04-21 08:07:00,34.7,16.0,30.57,NE,47,4.0,9.0,46,0.00,,,0.00,weatherlink.com 1.10,2013-04-21 12:07:00,
2013-04-21 08:22:00,34.4,18.0,30.58,East,95,4.0,9.0,51,0.00,,,0.00,weatherlink.com 1.10,2013-04-21 12:22:00,
2013-04-21 08:37:00,34.6,18.0,30.58,ENE,70,1.0,8.0,51,0.00,,,0.00,weatherlink.com 1.10,2013-04-21 12:37:00,
2013-04-21 08:52:00,35.5,16.0,30.59,NE,37,4.0,8.0,46,0.00,,,0.00,weatherlink.com 1.10,2013-04-21 12:52:00,
2013-04-21 09:07:00,35.3,17.0,30.60,ENE,69,4.0,10.0,48,0.00,,,0.00,weatherlink.com 1.10,2013-04-21 13:07:00,
2013-04-21 09:22:00,35.9,17.0,30.60,SE,127,2.0,10.0,47,0.00,,,0.00,weatherlink.com 1.10,2013-04-21 13:22:00,
2013-04-21 09:37:00,36.3,16.0,30.61,ENE,66,3.0,9.0,44,0.00,,,0.00,weatherlink.com 1.10,2013-04-21 13:37:00,
2013-04-21 09:52:00,36.6,17.0,30.62,East,87,4.0,10.0,46,0.00,,,0.00,weatherlink.com 1.10,2013-04-21 13:52:00,
2013-04-21 10:07:00,36.9,20.0,30.62,SE,133,3.0,12.0,51,0.00,,,0.00,weatherlink.com 1.10,2013-04-21 14:07:00,
2013-04-21 10:22:00,36.7,17.0,30.62,SE,143,8.0,10.0,45,0.00,,,0.00,weatherlink.com 1.10,2013-04-21 14:22:00,
2013-04-21 10:37:00,37.4,18.0,30.62,East,96,5.0,11.0,46,0.00,,,0.00,weatherlink.com 1.10,2013-04-21 14:37:00,
2013-04-21 10:52:00,37.8,19.0,30.62,ESE,113,11.0,12.0,47,0.00,,,0.00,weatherlink.com 1.10,2013-04-21 14:52:00,
2013-04-21 11:07:00,39.1,19.0,30.62,SE,146,3.0,10.0,44,0.00,,,0.00,weatherlink.com 1.10,2013-04-21 15:07:00,
2013-04-21 11:22:00,38.9,19.0,30.62,East,94,10.0,13.0,44,0.00,,,0.00,weatherlink.com 1.10,2013-04-21 15:22:00,
2013-04-21 11:37:00,40.2,20.0,30.62,ESE,108,10.0,12.0,45,0.00,,,0.00,weatherlink.com 1.10,2013-04-21 15:37:00,
2013-04-21 11:52:00,40.0,18.0,30.63,ENE,66,6.0,13.0,42,0.00,,,0.00,weatherlink.com 1.10,2013-04-21 15:52:00,
2013-04-21 12:07:00,40.7,20.0,30.62,ESE,102,4.0,12.0,44,0.00,,,0.00,weatherlink.com 1.10,2013-04-21 16:07:00,
2013-04-21 12:22:00,41.0,20.0,30.62,SE,131,11.0,16.0,44,0.00,,,0.00,weatherlink.com 1.10,2013-04-21 16:22:00,
2013-04-21 12:37:00,41.5,19.0,30.62,East,91,6.0,18.0,41,0.00,,,0.00,weatherlink.com 1.10,2013-04-21 16:37:00,
2013-04-21 12:52:00,41.5,21.0,30.62,SE,129,7.0,15.0,45,0.00,,,0.00,weatherlink.com 1.10,2013-04-21 16:52:00,
2013-04-21 13:07:00,42.6,22.0,30.62,East,88,9.0,11.0,44,0.00,,,0.00,weatherlink.com 1.10,2013-04-21 17:07:00,
2013-04-21 13:22:00,43.3,24.0,30.62,ENE,71,3.0,13.0,47,0.00,,,0.00,weatherlink.com 1.10,2013-04-21 17:22:00,
2013-04-21 13:37:00,44.1,23.0,30.62,ESE,114,7.0,13.0,43,0.00,,,0.00,weatherlink.com 1.10,2013-04-21 17:37:00,
2013-04-21 13:52:00,44.2,19.0,30.62,ESE,107,6.0,-999.0,37,-99.99,,,0.00,weatherlink.com 1.10,2013-04-21 17:52:00,
2013-04-21 14:07:00,44.8,21.0,30.61,ESE,102,7.0,14.0,39,0.00,,,0.00,weatherlink.com 1.10,2013-04-21 18:07:00,
2013-04-21 14:23:00,45.3,21.0,30.62,ENE,74,10.0,12.0,38,0.00,,,0.00,weatherlink.com 1.10,2013-04-21 18:23:00,
2013-04-21 14:38:00,45.2,20.0,30.61,East,96,7.0,12.0,37,0.00,,,0.00,weatherlink.com 1.10,2013-04-21 18:38:00,
2013-04-21 14:53:00,46.1,23.0,30.61,North,4,5.0,9.0,41,0.00,,,0.00,weatherlink.com 1.10,2013-04-21 18:53:00,
2013-04-21 15:08:00,45.5,22.0,30.61,ENE,57,4.0,15.0,39,0.00,,,0.00,weatherlink.com 1.10,2013-04-21 19:08:00,
2013-04-21 15:23:00,46.0,22.0,30.61,ESE,103,4.0,11.0,39,0.00,,,0.00,weatherlink.com 1.10,2013-04-21 19:23:00,
2013-04-21 15:38:00,46.7,22.0,30.61,NE,36,5.0,7.0,38,0.00,,,0.00,weatherlink.com 1.10,2013-04-21 19:38:00,
2013-04-21 15:53:00,47.3,20.0,30.61,ENE,73,4.0,11.0,34,0.00,,,0.00,weatherlink.com 1.10,2013-04-21 19:53:00,
2013-04-21 16:08:00,46.8,20.0,30.60,NE,54,11.0,11.0,35,0.00,,,0.00,weatherlink.com 1.10,2013-04-21 20:08:00,
2013-04-21 16:23:00,46.9,20.0,30.60,East,92,4.0,13.0,34,0.00,,,0.00,weatherlink.com 1.10,2013-04-21 20:23:00,
2013-04-21 16:38:00,46.9,20.0,30.61,NNE,23,1.0,9.0,35,0.00,,,0.00,weatherlink.com 1.10,2013-04-21 20:38:00,
2013-04-21 16:53:00,47.1,21.0,30.61,NE,43,3.0,9.0,35,0.00,,,0.00,weatherlink.com 1.10,2013-04-21 20:53:00,
2013-04-21 17:08:00,46.9,20.0,30.61,ENE,65,5.0,11.0,34,0.00,,,0.00,weatherlink.com 1.10,2013-04-21 21:08:00,
2013-04-21 17:23:00,46.9,20.0,30.61,ESE,103,6.0,9.0,34,0.00,,,0.00,weatherlink.com 1.10,2013-04-21 21:23:00,
2013-04-21 17:38:00,46.6,19.0,30.61,North,355,3.0,10.0,34,0.00,,,0.00,weatherlink.com 1.10,2013-04-21 21:38:00,
2013-04-21 17:53:00,46.9,20.0,30.61,East,91,4.0,11.0,35,0.00,,,0.00,weatherlink.com 1.10,2013-04-21 21:53:00,
2013-04-21 18:08:00,46.7,20.0,30.61,ESE,103,5.0,8.0,34,0.00,,,0.00,weatherlink.com 1.10,2013-04-21 22:08:00,
2013-04-21 18:23:00,46.2,18.0,30.61,NNE,23,1.0,7.0,32,0.00,,,0.00,weatherlink.com 1.10,2013-04-21 22:23:00,
2013-04-21 18:38:00,45.2,17.0,30.62,North,358,1.0,7.0,33,0.00,,,0.00,weatherlink.com 1.10,2013-04-21 22:38:00,
2013-04-21 18:53:00,44.0,18.0,30.62,ESE,117,0.0,8.0,36,0.00,,,0.00,weatherlink.com 1.10,2013-04-21 22:53:00,
2013-04-21 19:08:00,43.1,17.0,30.63,NNW,334,1.0,8.0,35,0.00,,,0.00,weatherlink.com 1.10,2013-04-21 23:08:00,
2013-04-21 19:23:00,42.1,17.0,30.63,NW,326,0.0,2.0,37,0.00,,,0.00,weatherlink.com 1.10,2013-04-21 23:23:00,
2013-04-21 19:38:00,41.2,16.0,30.64,WNW,292,1.0,2.0,36,0.00,,,0.00,weatherlink.com 1.10,2013-04-21 23:38:00,
2013-04-21 19:53:00,39.3,19.0,30.65,North,1,0.0,1.0,44,0.00,,,0.00,weatherlink.com 1.10,2013-04-21 23:53:00,
2013-04-21 20:08:00,38.1,17.0,30.65,NNE,30,1.0,1.0,42,0.00,,,0.00,weatherlink.com 1.10,2013-04-22 00:08:00,
2013-04-21 20:23:00,37.6,18.0,30.66,NE,42,0.0,2.0,46,0.00,,,0.00,weatherlink.com 1.10,2013-04-22 00:23:00,
2013-04-21 20:38:00,36.6,19.0,30.66,NE,44,0.0,1.0,49,0.00,,,0.00,weatherlink.com 1.10,2013-04-22 00:38:00,
2013-04-21 20:53:00,35.8,18.0,30.67,NNE,33,0.0,1.0,49,0.00,,,0.00,weatherlink.com 1.10,2013-04-22 00:53:00,
2013-04-21 21:08:00,34.9,20.0,30.67,NNE,33,0.0,1.0,56,0.00,,,0.00,weatherlink.com 1.10,2013-04-22 01:08:00,
2013-04-21 21:23:00,34.2,20.0,30.68,NNE,33,0.0,0.0,57,0.00,,,0.00,weatherlink.com 1.10,2013-04-22 01:23:00,
2013-04-21 21:38:00,33.2,21.0,30.68,NNE,33,0.0,0.0,62,0.00,,,0.00,weatherlink.com 1.10,2013-04-22 01:38:00,
2013-04-21 21:53:00,32.6,20.0,30.68,NNE,33,0.0,0.0,61,0.00,,,0.00,weatherlink.com 1.10,2013-04-22 01:53:00,
2013-04-21 22:08:00,32.4,21.0,30.68,NNE,33,0.0,0.0,64,0.00,,,0.00,weatherlink.com 1.10,2013-04-22 02:08:00,
2013-04-21 22:23:00,31.7,21.0,30.68,NNE,33,0.0,0.0,64,0.00,,,0.00,weatherlink.com 1.10,2013-04-22 02:23:00,
2013-04-21 22:38:00,31.2,22.0,30.69,NNE,33,0.0,0.0,68,0.00,,,0.00,weatherlink.com 1.10,2013-04-22 02:38:00,
2013-04-21 22:53:00,31.4,22.0,30.69,WNW,288,0.0,1.0,69,0.00,,,0.00,weatherlink.com 1.10,2013-04-22 02:53:00,
2013-04-21 23:08:00,30.6,21.0,30.69,NW,320,0.0,1.0,68,0.00,,,0.00,weatherlink.com 1.10,2013-04-22 03:08:00,
2013-04-21 23:23:00,29.9,21.0,30.69,NW,320,0.0,0.0,69,0.00,,,0.00,weatherlink.com 1.10,2013-04-22 03:23:00,
2013-04-21 23:38:00,29.5,20.0,30.69,NNW,337,0.0,0.0,69,0.00,,,0.00,weatherlink.com 1.10,2013-04-22 03:38:00,
2013-04-21 23:53:00,28.8,21.0,30.69,NNE,27,0.0,0.0,72,0.00,,,0.00,weatherlink.com 1.10,2013-04-22 03:53:00,